sensor_id;sensor_type;location;lat;lon;timestamp;P1;durP1;ratioP1;P2;durP2;ratioP2
61460;SDS011;47325;50.506;4.472;2023-10-09T00:01:25;6.00;;;3.20;;
61460;SDS011;47325;50.506;4.472;2023-10-09T00:07:10;5.10;;;3.10;;
61460;SDS011;47325;50.506;4.472;2023-10-09T00:12:56;5.40;;;2.80;;
61460;SDS011;47325;50.506;4.472;2023-10-09T00:18:40;4.60;;;2.90;;
61460;SDS011;47325;50.506;4.472;2023-10-09T00:24:25;5.00;;;3.20;;
61460;SDS011;47325;50.506;4.472;2023-10-09T00:30:11;5.10;;;2.90;;
61460;SDS011;47325;50.506;4.472;2023-10-09T00:35:56;5.20;;;2.90;;
61460;SDS011;47325;50.506;4.472;2023-10-09T00:41:41;7.70;;;3.30;;
61460;SDS011;47325;50.506;4.472;2023-10-09T00:47:26;4.70;;;3.10;;
61460;SDS011;47325;50.506;4.472;2023-10-09T00:53:11;4.40;;;2.80;;
61460;SDS011;47325;50.506;4.472;2023-10-09T00:58:56;6.50;;;3.20;;
61460;SDS011;47325;50.506;4.472;2023-10-09T01:04:41;5.50;;;3.00;;
61460;SDS011;47325;50.506;4.472;2023-10-09T01:10:26;5.00;;;2.60;;
61460;SDS011;47325;50.506;4.472;2023-10-09T01:16:11;5.10;;;2.80;;
61460;SDS011;47325;50.506;4.472;2023-10-09T01:21:56;4.80;;;2.90;;
61460;SDS011;47325;50.506;4.472;2023-10-09T01:27:40;4.40;;;2.80;;
61460;SDS011;47325;50.506;4.472;2023-10-09T01:33:25;5.70;;;2.90;;
61460;SDS011;47325;50.506;4.472;2023-10-09T01:39:11;5.70;;;3.20;;
61460;SDS011;47325;50.506;4.472;2023-10-09T01:44:56;6.40;;;3.10;;
61460;SDS011;47325;50.506;4.472;2023-10-09T01:50:41;5.70;;;3.10;;
61460;SDS011;47325;50.506;4.472;2023-10-09T01:56:26;4.60;;;2.80;;
61460;SDS011;47325;50.506;4.472;2023-10-09T02:02:10;5.70;;;3.00;;
61460;SDS011;47325;50.506;4.472;2023-10-09T02:07:55;6.20;;;3.00;;
61460;SDS011;47325;50.506;4.472;2023-10-09T02:13:40;6.80;;;2.70;;
61460;SDS011;47325;50.506;4.472;2023-10-09T02:19:25;6.90;;;3.00;;
61460;SDS011;47325;50.506;4.472;2023-10-09T02:25:10;5.40;;;3.00;;
61460;SDS011;47325;50.506;4.472;2023-10-09T02:30:55;5.00;;;2.80;;
61460;SDS011;47325;50.506;4.472;2023-10-09T02:36:40;5.90;;;2.80;;
61460;SDS011;47325;50.506;4.472;2023-10-09T02:42:25;6.60;;;2.90;;
61460;SDS011;47325;50.506;4.472;2023-10-09T02:48:10;4.40;;;2.80;;
61460;SDS011;47325;50.506;4.472;2023-10-09T02:53:57;6.30;;;3.20;;
61460;SDS011;47325;50.506;4.472;2023-10-09T02:59:42;7.00;;;3.10;;
61460;SDS011;47325;50.506;4.472;2023-10-09T03:05:27;6.40;;;3.30;;
61460;SDS011;47325;50.506;4.472;2023-10-09T03:11:11;5.50;;;3.00;;
61460;SDS011;47325;50.506;4.472;2023-10-09T03:16:57;4.90;;;3.00;;
61460;SDS011;47325;50.506;4.472;2023-10-09T03:22:42;5.20;;;3.20;;
61460;SDS011;47325;50.506;4.472;2023-10-09T03:28:27;5.00;;;3.20;;
61460;SDS011;47325;50.506;4.472;2023-10-09T03:34:12;6.50;;;3.30;;
61460;SDS011;47325;50.506;4.472;2023-10-09T03:39:57;5.40;;;3.00;;
61460;SDS011;47325;50.506;4.472;2023-10-09T03:45:43;6.30;;;3.00;;
61460;SDS011;47325;50.506;4.472;2023-10-09T03:51:29;5.60;;;3.10;;
61460;SDS011;47325;50.506;4.472;2023-10-09T03:57:14;5.50;;;3.10;;
61460;SDS011;47325;50.506;4.472;2023-10-09T04:02:59;5.30;;;2.90;;
61460;SDS011;47325;50.506;4.472;2023-10-09T04:08:45;6.00;;;3.00;;
61460;SDS011;47325;50.506;4.472;2023-10-09T04:14:30;6.30;;;3.20;;
61460;SDS011;47325;50.506;4.472;2023-10-09T04:20:15;5.60;;;3.60;;
61460;SDS011;47325;50.506;4.472;2023-10-09T04:25:59;5.70;;;3.20;;
61460;SDS011;47325;50.506;4.472;2023-10-09T04:31:44;5.70;;;3.20;;
61460;SDS011;47325;50.506;4.472;2023-10-09T04:37:29;6.00;;;3.50;;
61460;SDS011;47325;50.506;4.472;2023-10-09T04:43:14;6.80;;;3.50;;
61460;SDS011;47325;50.506;4.472;2023-10-09T04:48:59;6.50;;;3.60;;
61460;SDS011;47325;50.506;4.472;2023-10-09T04:54:45;5.40;;;2.80;;
61460;SDS011;47325;50.506;4.472;2023-10-09T05:00:30;6.80;;;3.10;;
61460;SDS011;47325;50.506;4.472;2023-10-09T05:06:16;5.40;;;3.20;;
61460;SDS011;47325;50.506;4.472;2023-10-09T05:12:01;6.60;;;3.50;;
61460;SDS011;47325;50.506;4.472;2023-10-09T05:18:12;7.30;;;3.70;;
61460;SDS011;47325;50.506;4.472;2023-10-09T05:39:31;6.30;;;3.30;;
61460;SDS011;47325;50.506;4.472;2023-10-09T05:46:50;6.30;;;3.30;;
61460;SDS011;47325;50.506;4.472;2023-10-09T05:54:04;6.00;;;3.60;;
61460;SDS011;47325;50.506;4.472;2023-10-09T06:01:10;6.20;;;3.40;;
61460;SDS011;47325;50.506;4.472;2023-10-09T06:07:22;6.40;;;3.00;;
61460;SDS011;47325;50.506;4.472;2023-10-09T06:41:54;6.00;;;3.50;;
61460;SDS011;47325;50.506;4.472;2023-10-09T06:48:07;5.90;;;3.20;;
61460;SDS011;47325;50.506;4.472;2023-10-09T06:54:57;4.50;;;3.00;;
61460;SDS011;47325;50.506;4.472;2023-10-09T07:08:59;6.10;;;3.30;;
61460;SDS011;47325;50.506;4.472;2023-10-09T07:15:56;7.00;;;3.20;;
61460;SDS011;47325;50.506;4.472;2023-10-09T07:22:42;7.10;;;3.20;;
61460;SDS011;47325;50.506;4.472;2023-10-09T07:29:25;5.90;;;3.20;;
61460;SDS011;47325;50.506;4.472;2023-10-09T07:42:35;5.70;;;3.20;;
61460;SDS011;47325;50.506;4.472;2023-10-09T08:02:43;6.20;;;3.30;;
61460;SDS011;47325;50.506;4.472;2023-10-09T08:09:17;9.60;;;3.60;;
61460;SDS011;47325;50.506;4.472;2023-10-09T08:16:09;4.50;;;3.30;;
61460;SDS011;47325;50.506;4.472;2023-10-09T08:22:42;8.10;;;3.20;;
61460;SDS011;47325;50.506;4.472;2023-10-09T08:28:38;7.60;;;3.30;;
61460;SDS011;47325;50.506;4.472;2023-10-09T08:35:10;7.70;;;3.20;;
61460;SDS011;47325;50.506;4.472;2023-10-09T08:41:37;4.90;;;3.10;;
61460;SDS011;47325;50.506;4.472;2023-10-09T08:47:47;5.10;;;3.10;;
61460;SDS011;47325;50.506;4.472;2023-10-09T08:53:32;5.10;;;2.90;;
61460;SDS011;47325;50.506;4.472;2023-10-09T08:59:17;6.30;;;3.10;;
61460;SDS011;47325;50.506;4.472;2023-10-09T09:05:03;5.50;;;3.10;;
61460;SDS011;47325;50.506;4.472;2023-10-09T09:10:54;5.30;;;3.20;;
61460;SDS011;47325;50.506;4.472;2023-10-09T09:16:42;5.70;;;3.10;;
61460;SDS011;47325;50.506;4.472;2023-10-09T09:22:26;5.60;;;3.20;;
61460;SDS011;47325;50.506;4.472;2023-10-09T09:28:12;5.60;;;2.90;;
61460;SDS011;47325;50.506;4.472;2023-10-09T09:33:59;6.60;;;2.90;;
61460;SDS011;47325;50.506;4.472;2023-10-09T09:39:44;5.60;;;3.00;;
61460;SDS011;47325;50.506;4.472;2023-10-09T09:45:38;6.70;;;3.20;;
61460;SDS011;47325;50.506;4.472;2023-10-09T09:51:24;5.30;;;2.80;;
61460;SDS011;47325;50.506;4.472;2023-10-09T09:57:08;5.60;;;3.80;;
61460;SDS011;47325;50.506;4.472;2023-10-09T10:02:52;6.10;;;3.30;;
61460;SDS011;47325;50.506;4.472;2023-10-09T10:08:39;6.80;;;3.40;;
61460;SDS011;47325;50.506;4.472;2023-10-09T10:14:25;4.70;;;2.90;;
61460;SDS011;47325;50.506;4.472;2023-10-09T10:20:14;6.00;;;2.90;;
61460;SDS011;47325;50.506;4.472;2023-10-09T10:25:59;4.60;;;2.80;;
61460;SDS011;47325;50.506;4.472;2023-10-09T10:31:55;5.00;;;2.80;;
61460;SDS011;47325;50.506;4.472;2023-10-09T10:37:41;4.60;;;2.80;;
61460;SDS011;47325;50.506;4.472;2023-10-09T10:43:25;5.20;;;2.70;;
61460;SDS011;47325;50.506;4.472;2023-10-09T10:49:10;4.50;;;2.80;;
61460;SDS011;47325;50.506;4.472;2023-10-09T10:54:56;3.80;;;2.70;;
61460;SDS011;47325;50.506;4.472;2023-10-09T11:00:46;4.90;;;2.80;;
61460;SDS011;47325;50.506;4.472;2023-10-09T11:06:36;5.10;;;2.60;;
61460;SDS011;47325;50.506;4.472;2023-10-09T11:12:21;4.50;;;2.60;;
61460;SDS011;47325;50.506;4.472;2023-10-09T11:18:06;5.00;;;2.60;;
61460;SDS011;47325;50.506;4.472;2023-10-09T11:23:51;3.90;;;2.60;;
61460;SDS011;47325;50.506;4.472;2023-10-09T11:29:36;4.80;;;2.70;;
61460;SDS011;47325;50.506;4.472;2023-10-09T11:35:20;5.00;;;2.50;;
61460;SDS011;47325;50.506;4.472;2023-10-09T11:41:15;7.30;;;2.70;;
61460;SDS011;47325;50.506;4.472;2023-10-09T11:47:00;5.60;;;2.50;;
61460;SDS011;47325;50.506;4.472;2023-10-09T11:58:42;6.10;;;2.50;;
61460;SDS011;47325;50.506;4.472;2023-10-09T12:04:27;6.50;;;2.60;;
61460;SDS011;47325;50.506;4.472;2023-10-09T12:10:13;3.70;;;2.20;;
61460;SDS011;47325;50.506;4.472;2023-10-09T12:15:58;5.20;;;2.40;;
61460;SDS011;47325;50.506;4.472;2023-10-09T12:21:43;4.70;;;2.40;;
61460;SDS011;47325;50.506;4.472;2023-10-09T12:27:27;4.90;;;2.60;;
61460;SDS011;47325;50.506;4.472;2023-10-09T12:33:11;3.80;;;2.50;;
61460;SDS011;47325;50.506;4.472;2023-10-09T12:38:56;4.90;;;2.50;;
61460;SDS011;47325;50.506;4.472;2023-10-09T12:44:41;5.70;;;2.80;;
61460;SDS011;47325;50.506;4.472;2023-10-09T12:50:25;4.10;;;2.50;;
61460;SDS011;47325;50.506;4.472;2023-10-09T12:56:10;4.00;;;2.60;;
61460;SDS011;47325;50.506;4.472;2023-10-09T13:01:55;4.60;;;2.80;;
61460;SDS011;47325;50.506;4.472;2023-10-09T13:07:42;4.00;;;2.50;;
61460;SDS011;47325;50.506;4.472;2023-10-09T13:13:27;4.30;;;2.70;;
61460;SDS011;47325;50.506;4.472;2023-10-09T13:19:12;4.00;;;2.50;;
61460;SDS011;47325;50.506;4.472;2023-10-09T13:24:56;3.80;;;2.40;;
61460;SDS011;47325;50.506;4.472;2023-10-09T13:30:41;4.80;;;2.40;;
61460;SDS011;47325;50.506;4.472;2023-10-09T13:36:26;3.20;;;2.30;;
61460;SDS011;47325;50.506;4.472;2023-10-09T13:42:11;3.90;;;2.40;;
61460;SDS011;47325;50.506;4.472;2023-10-09T13:47:55;4.10;;;2.50;;
61460;SDS011;47325;50.506;4.472;2023-10-09T13:53:41;5.40;;;2.50;;
61460;SDS011;47325;50.506;4.472;2023-10-09T13:59:25;4.10;;;2.40;;
61460;SDS011;47325;50.506;4.472;2023-10-09T14:05:10;3.60;;;2.20;;
61460;SDS011;47325;50.506;4.472;2023-10-09T14:10:55;4.80;;;2.40;;
61460;SDS011;47325;50.506;4.472;2023-10-09T14:16:39;4.70;;;2.40;;
61460;SDS011;47325;50.506;4.472;2023-10-09T14:22:24;3.70;;;2.40;;
61460;SDS011;47325;50.506;4.472;2023-10-09T14:28:09;3.80;;;2.30;;
61460;SDS011;47325;50.506;4.472;2023-10-09T14:33:53;4.30;;;2.40;;
61460;SDS011;47325;50.506;4.472;2023-10-09T14:39:38;4.10;;;2.50;;
61460;SDS011;47325;50.506;4.472;2023-10-09T14:45:22;4.30;;;2.30;;
61460;SDS011;47325;50.506;4.472;2023-10-09T14:51:08;4.20;;;2.50;;
61460;SDS011;47325;50.506;4.472;2023-10-09T14:56:52;5.30;;;2.70;;
61460;SDS011;47325;50.506;4.472;2023-10-09T15:02:37;5.20;;;2.60;;
61460;SDS011;47325;50.506;4.472;2023-10-09T15:08:21;3.40;;;2.20;;
61460;SDS011;47325;50.506;4.472;2023-10-09T15:14:06;4.20;;;2.40;;
61460;SDS011;47325;50.506;4.472;2023-10-09T15:19:51;4.20;;;2.40;;
61460;SDS011;47325;50.506;4.472;2023-10-09T15:25:35;4.90;;;2.50;;
61460;SDS011;47325;50.506;4.472;2023-10-09T15:31:20;3.80;;;2.30;;
61460;SDS011;47325;50.506;4.472;2023-10-09T15:37:04;3.50;;;2.40;;
61460;SDS011;47325;50.506;4.472;2023-10-09T15:42:49;4.50;;;2.30;;
61460;SDS011;47325;50.506;4.472;2023-10-09T15:48:34;3.60;;;2.40;;
61460;SDS011;47325;50.506;4.472;2023-10-09T15:54:19;5.60;;;2.50;;
61460;SDS011;47325;50.506;4.472;2023-10-09T16:00:04;4.50;;;2.10;;
61460;SDS011;47325;50.506;4.472;2023-10-09T16:05:49;3.90;;;2.50;;
61460;SDS011;47325;50.506;4.472;2023-10-09T16:11:33;4.30;;;2.50;;
61460;SDS011;47325;50.506;4.472;2023-10-09T16:17:17;3.40;;;2.00;;
61460;SDS011;47325;50.506;4.472;2023-10-09T16:23:02;4.40;;;2.30;;
61460;SDS011;47325;50.506;4.472;2023-10-09T16:28:47;3.70;;;2.30;;
61460;SDS011;47325;50.506;4.472;2023-10-09T16:34:31;5.70;;;2.60;;
61460;SDS011;47325;50.506;4.472;2023-10-09T16:40:16;4.80;;;2.50;;
61460;SDS011;47325;50.506;4.472;2023-10-09T16:46:00;4.50;;;2.50;;
61460;SDS011;47325;50.506;4.472;2023-10-09T16:51:45;4.80;;;2.50;;
61460;SDS011;47325;50.506;4.472;2023-10-09T16:57:29;4.70;;;2.30;;
61460;SDS011;47325;50.506;4.472;2023-10-09T17:03:14;5.10;;;2.50;;
61460;SDS011;47325;50.506;4.472;2023-10-09T17:08:59;6.30;;;2.90;;
61460;SDS011;47325;50.506;4.472;2023-10-09T17:14:44;4.70;;;2.60;;
61460;SDS011;47325;50.506;4.472;2023-10-09T17:20:28;5.20;;;2.50;;
61460;SDS011;47325;50.506;4.472;2023-10-09T17:26:13;4.80;;;2.70;;
61460;SDS011;47325;50.506;4.472;2023-10-09T17:31:58;5.10;;;2.70;;
61460;SDS011;47325;50.506;4.472;2023-10-09T17:37:42;6.00;;;2.70;;
61460;SDS011;47325;50.506;4.472;2023-10-09T17:43:27;4.30;;;2.70;;
61460;SDS011;47325;50.506;4.472;2023-10-09T17:49:11;5.40;;;2.80;;
61460;SDS011;47325;50.506;4.472;2023-10-09T17:54:55;5.20;;;2.60;;
61460;SDS011;47325;50.506;4.472;2023-10-09T18:00:41;6.10;;;3.20;;
61460;SDS011;47325;50.506;4.472;2023-10-09T18:06:25;5.00;;;2.90;;
61460;SDS011;47325;50.506;4.472;2023-10-09T18:12:09;5.20;;;2.90;;
61460;SDS011;47325;50.506;4.472;2023-10-09T18:17:54;5.40;;;2.90;;
61460;SDS011;47325;50.506;4.472;2023-10-09T18:23:39;5.50;;;2.90;;
61460;SDS011;47325;50.506;4.472;2023-10-09T18:29:23;4.80;;;2.90;;
61460;SDS011;47325;50.506;4.472;2023-10-09T18:35:09;4.30;;;2.80;;
61460;SDS011;47325;50.506;4.472;2023-10-09T18:40:54;5.10;;;3.00;;
61460;SDS011;47325;50.506;4.472;2023-10-09T18:46:38;5.80;;;2.70;;
61460;SDS011;47325;50.506;4.472;2023-10-09T18:52:23;4.80;;;2.80;;
61460;SDS011;47325;50.506;4.472;2023-10-09T18:58:08;4.40;;;2.90;;
61460;SDS011;47325;50.506;4.472;2023-10-09T19:03:53;5.40;;;3.00;;
61460;SDS011;47325;50.506;4.472;2023-10-09T19:09:38;4.90;;;2.70;;
61460;SDS011;47325;50.506;4.472;2023-10-09T19:15:22;5.70;;;3.20;;
61460;SDS011;47325;50.506;4.472;2023-10-09T19:21:07;4.80;;;2.70;;
61460;SDS011;47325;50.506;4.472;2023-10-09T19:26:53;4.60;;;2.90;;
61460;SDS011;47325;50.506;4.472;2023-10-09T19:32:38;4.40;;;2.90;;
61460;SDS011;47325;50.506;4.472;2023-10-09T19:38:25;5.40;;;3.00;;
61460;SDS011;47325;50.506;4.472;2023-10-09T19:44:11;5.20;;;3.00;;
61460;SDS011;47325;50.506;4.472;2023-10-09T19:49:57;6.90;;;3.10;;
61460;SDS011;47325;50.506;4.472;2023-10-09T19:55:43;6.00;;;3.10;;
61460;SDS011;47325;50.506;4.472;2023-10-09T20:01:29;5.70;;;3.00;;
61460;SDS011;47325;50.506;4.472;2023-10-09T20:07:13;5.10;;;3.00;;
61460;SDS011;47325;50.506;4.472;2023-10-09T20:12:58;5.40;;;3.10;;
61460;SDS011;47325;50.506;4.472;2023-10-09T20:18:45;4.80;;;3.00;;
61460;SDS011;47325;50.506;4.472;2023-10-09T20:24:31;5.40;;;3.20;;
61460;SDS011;47325;50.506;4.472;2023-10-09T20:30:17;6.00;;;3.10;;
61460;SDS011;47325;50.506;4.472;2023-10-09T20:36:05;5.60;;;3.30;;
61460;SDS011;47325;50.506;4.472;2023-10-09T20:41:50;5.90;;;3.10;;
61460;SDS011;47325;50.506;4.472;2023-10-09T20:47:37;5.30;;;2.90;;
61460;SDS011;47325;50.506;4.472;2023-10-09T20:53:22;5.60;;;3.20;;
61460;SDS011;47325;50.506;4.472;2023-10-09T20:59:07;6.50;;;3.40;;
61460;SDS011;47325;50.506;4.472;2023-10-09T21:04:53;4.40;;;3.00;;
61460;SDS011;47325;50.506;4.472;2023-10-09T21:10:38;6.90;;;3.30;;
61460;SDS011;47325;50.506;4.472;2023-10-09T21:16:27;5.90;;;3.20;;
61460;SDS011;47325;50.506;4.472;2023-10-09T21:22:12;5.30;;;3.30;;
61460;SDS011;47325;50.506;4.472;2023-10-09T21:27:58;5.30;;;3.20;;
61460;SDS011;47325;50.506;4.472;2023-10-09T21:33:43;4.50;;;3.10;;
61460;SDS011;47325;50.506;4.472;2023-10-09T21:39:29;6.30;;;3.50;;
61460;SDS011;47325;50.506;4.472;2023-10-09T21:45:14;5.00;;;2.90;;
61460;SDS011;47325;50.506;4.472;2023-10-09T21:50:59;5.80;;;3.40;;
61460;SDS011;47325;50.506;4.472;2023-10-09T21:56:44;5.20;;;3.10;;
61460;SDS011;47325;50.506;4.472;2023-10-09T22:02:29;5.90;;;3.00;;
61460;SDS011;47325;50.506;4.472;2023-10-09T22:08:15;5.10;;;3.40;;
61460;SDS011;47325;50.506;4.472;2023-10-09T22:14:03;5.50;;;3.40;;
61460;SDS011;47325;50.506;4.472;2023-10-09T22:19:48;5.80;;;3.50;;
61460;SDS011;47325;50.506;4.472;2023-10-09T22:25:34;6.50;;;3.70;;
61460;SDS011;47325;50.506;4.472;2023-10-09T22:31:19;5.10;;;3.00;;
61460;SDS011;47325;50.506;4.472;2023-10-09T22:37:05;6.60;;;3.30;;
61460;SDS011;47325;50.506;4.472;2023-10-09T22:42:50;5.50;;;3.50;;
61460;SDS011;47325;50.506;4.472;2023-10-09T22:48:35;6.30;;;3.90;;
61460;SDS011;47325;50.506;4.472;2023-10-09T22:54:21;6.80;;;3.60;;
61460;SDS011;47325;50.506;4.472;2023-10-09T23:00:07;5.90;;;3.40;;
61460;SDS011;47325;50.506;4.472;2023-10-09T23:05:52;5.10;;;3.10;;
61460;SDS011;47325;50.506;4.472;2023-10-09T23:11:38;7.00;;;3.10;;
61460;SDS011;47325;50.506;4.472;2023-10-09T23:17:23;7.30;;;3.20;;
61460;SDS011;47325;50.506;4.472;2023-10-09T23:23:08;5.60;;;3.40;;
61460;SDS011;47325;50.506;4.472;2023-10-09T23:28:52;5.90;;;3.30;;
61460;SDS011;47325;50.506;4.472;2023-10-09T23:34:37;6.00;;;3.50;;
61460;SDS011;47325;50.506;4.472;2023-10-09T23:40:21;6.70;;;4.10;;
61460;SDS011;47325;50.506;4.472;2023-10-09T23:46:05;5.30;;;3.40;;
61460;SDS011;47325;50.506;4.472;2023-10-09T23:51:51;5.90;;;3.20;;
61460;SDS011;47325;50.506;4.472;2023-10-09T23:57:36;5.30;;;3.20;;
